createdAt,value
2019-01-11T00:00:08.344Z,7.80
2019-01-11T00:01:08.334Z,7.10
2019-01-11T00:02:08.326Z,8.40
2019-01-11T00:03:08.310Z,7.20
2019-01-11T00:04:08.302Z,6.90
2019-01-11T00:05:08.281Z,8.20
2019-01-11T00:06:08.279Z,10.10
2019-01-11T00:07:08.256Z,9.40
2019-01-11T00:08:08.252Z,7.50
2019-01-11T00:09:08.237Z,8.00
2019-01-11T00:10:08.217Z,9.00
2019-01-11T00:11:08.207Z,8.50
2019-01-11T00:12:08.195Z,9.20
2019-01-11T00:13:08.206Z,8.20
2019-01-11T00:14:08.174Z,7.10
2019-01-11T00:15:08.158Z,8.30
2019-01-11T00:16:08.144Z,9.30
2019-01-11T00:17:08.129Z,6.90
2019-01-11T00:18:08.121Z,9.70
2019-01-11T00:19:08.106Z,12.20
2019-01-11T00:20:08.093Z,7.00
2019-01-11T00:21:08.126Z,7.30
2019-01-11T00:22:08.068Z,9.40
2019-01-11T00:23:08.054Z,10.50
2019-01-11T00:24:08.040Z,8.00
2019-01-11T00:25:08.029Z,9.00
2019-01-11T00:26:08.020Z,7.80
2019-01-11T00:27:07.999Z,8.60
2019-01-11T00:28:07.991Z,10.00
2019-01-11T00:29:07.981Z,9.30
2019-01-11T00:30:07.965Z,7.60
2019-01-11T00:31:07.955Z,9.00
2019-01-11T00:32:07.939Z,9.20
2019-01-11T00:33:07.922Z,8.10
2019-01-11T00:34:07.915Z,8.70
2019-01-11T00:35:07.899Z,8.00
2019-01-11T00:36:07.892Z,9.10
2019-01-11T00:37:07.887Z,10.60
2019-01-11T00:38:07.877Z,10.90
2019-01-11T00:39:07.857Z,9.60
2019-01-11T00:40:07.832Z,9.60
2019-01-11T00:41:07.824Z,12.10
2019-01-11T00:42:07.810Z,9.30
2019-01-11T00:43:07.796Z,10.50
2019-01-11T00:44:07.785Z,9.50
2019-01-11T00:45:07.775Z,9.80
2019-01-11T00:46:07.759Z,13.30
2019-01-11T00:47:07.740Z,9.80
2019-01-11T00:48:07.735Z,11.80
2019-01-11T00:49:13.374Z,11.10
2019-01-11T00:50:07.737Z,10.70
2019-01-11T00:51:07.698Z,9.60
2019-01-11T00:52:07.683Z,9.60
2019-01-11T00:53:07.712Z,10.30
2019-01-11T00:54:07.656Z,13.10
2019-01-11T00:55:07.652Z,12.10
2019-01-11T00:56:07.626Z,13.20
2019-01-11T00:57:07.619Z,12.20
2019-01-11T00:58:07.605Z,12.60
2019-01-11T00:59:07.594Z,13.50
2019-01-11T01:00:07.579Z,16.20
2019-01-11T01:01:07.563Z,18.20
2019-01-11T01:02:07.563Z,14.60
2019-01-11T01:03:07.540Z,15.10
2019-01-11T01:04:07.534Z,17.90
2019-01-11T01:05:07.512Z,19.60
2019-01-11T01:06:07.503Z,18.40
2019-01-11T01:07:07.491Z,18.80
2019-01-11T01:08:07.484Z,17.10
2019-01-11T01:09:07.465Z,15.20
2019-01-11T01:10:07.451Z,15.50
2019-01-11T01:11:07.438Z,14.60
2019-01-11T01:12:07.423Z,11.30
2019-01-11T01:13:07.413Z,13.70
2019-01-11T01:14:07.399Z,13.60
2019-01-11T01:15:07.387Z,13.70
2019-01-11T01:16:07.374Z,13.60
2019-01-11T01:17:07.362Z,12.90
2019-01-11T01:18:07.348Z,10.60
2019-01-11T01:19:07.336Z,12.60
2019-01-11T01:20:07.329Z,10.50
2019-01-11T01:21:07.308Z,11.70
2019-01-11T01:22:07.294Z,12.90
2019-01-11T01:23:07.291Z,12.30
2019-01-11T01:24:07.272Z,10.60
2019-01-11T01:25:07.262Z,10.10
2019-01-11T01:26:07.246Z,8.60
2019-01-11T01:27:07.232Z,8.50
2019-01-11T01:28:07.227Z,9.30
2019-01-11T01:29:07.215Z,13.00
2019-01-11T01:30:07.196Z,9.90
2019-01-11T01:31:07.184Z,10.40
2019-01-11T01:32:08.323Z,12.30
2019-01-11T01:33:07.158Z,9.00
2019-01-11T01:34:07.144Z,10.80
2019-01-11T01:35:07.127Z,8.70
2019-01-11T01:36:07.126Z,9.40
2019-01-11T01:37:07.105Z,9.70
2019-01-11T01:38:07.093Z,9.30
2019-01-11T01:39:07.081Z,9.60
2019-01-11T01:40:07.067Z,11.40
2019-01-11T01:41:07.054Z,12.00
2019-01-11T01:42:07.038Z,10.10
2019-01-11T01:43:07.029Z,10.80
2019-01-11T01:44:07.014Z,11.30
2019-01-11T01:45:07.008Z,9.80
2019-01-11T01:46:06.996Z,11.30
2019-01-11T01:47:06.978Z,10.20
2019-01-11T01:48:06.966Z,11.00
2019-01-11T01:49:06.952Z,8.40
2019-01-11T01:50:06.947Z,8.00
2019-01-11T01:51:06.927Z,16.30
2019-01-11T01:52:06.913Z,9.10
2019-01-11T01:53:06.909Z,10.70
2019-01-11T01:54:06.890Z,10.30
2019-01-11T01:55:06.872Z,10.20
2019-01-11T01:56:06.873Z,9.10
2019-01-11T01:57:06.859Z,8.70
2019-01-11T01:58:06.838Z,8.80
2019-01-11T01:59:06.828Z,8.10
2019-01-11T02:00:06.814Z,14.10
2019-01-11T02:01:06.797Z,8.40
2019-01-11T02:02:06.784Z,7.50
2019-01-11T02:03:06.776Z,8.40
2019-01-11T02:04:06.765Z,10.50
2019-01-11T02:05:06.752Z,10.60
2019-01-11T02:06:06.735Z,8.20
2019-01-11T02:07:06.726Z,12.40
2019-01-11T02:08:06.713Z,11.60
2019-01-11T02:09:06.696Z,9.30
2019-01-11T02:10:06.689Z,10.10
2019-01-11T02:11:06.675Z,8.30
2019-01-11T02:12:06.658Z,9.50
2019-01-11T02:13:06.646Z,9.60
2019-01-11T02:14:06.631Z,9.50
2019-01-11T02:15:06.625Z,9.90
2019-01-11T02:16:06.606Z,9.70
2019-01-11T02:17:06.594Z,11.20
2019-01-11T02:18:06.584Z,9.50
2019-01-11T02:19:06.573Z,11.30
2019-01-11T02:20:06.565Z,10.20
2019-01-11T02:21:06.546Z,11.20
2019-01-11T02:22:06.530Z,9.20
2019-01-11T02:23:06.523Z,11.10
2019-01-11T02:24:06.509Z,10.40
2019-01-11T02:25:06.494Z,11.00
2019-01-11T02:26:06.481Z,9.30
2019-01-11T02:27:06.470Z,9.50
2019-01-11T02:28:06.456Z,9.60
2019-01-11T02:29:06.440Z,11.50
2019-01-11T02:30:06.430Z,10.70
2019-01-11T02:31:06.422Z,10.20
2019-01-11T02:32:06.407Z,10.10
2019-01-11T02:33:06.395Z,9.10
2019-01-11T02:34:06.380Z,12.20
2019-01-11T02:35:06.370Z,10.90
2019-01-11T02:36:06.360Z,11.30
2019-01-11T02:37:06.343Z,12.10
2019-01-11T02:38:06.325Z,10.20
2019-01-11T02:39:06.318Z,9.30
2019-01-11T02:40:06.300Z,11.60
2019-01-11T02:41:06.295Z,9.60
2019-01-11T02:42:06.277Z,11.40
2019-01-11T02:43:06.264Z,9.30
2019-01-11T02:44:06.259Z,10.70
2019-01-11T02:45:06.239Z,10.10
2019-01-11T02:46:06.229Z,11.40
2019-01-11T02:47:06.215Z,9.30
2019-01-11T02:48:06.199Z,11.90
2019-01-11T02:49:06.188Z,10.00
2019-01-11T02:50:06.172Z,11.40
2019-01-11T02:51:06.174Z,8.90
2019-01-11T02:52:06.152Z,10.50
2019-01-11T02:53:06.139Z,9.50
2019-01-11T02:54:06.128Z,12.90
2019-01-11T02:55:06.113Z,10.70
2019-01-11T02:56:06.101Z,10.60
2019-01-11T02:57:06.088Z,10.80
2019-01-11T02:58:06.076Z,13.10
2019-01-11T02:59:06.065Z,10.70
2019-01-11T03:00:06.046Z,10.00
2019-01-11T03:01:06.038Z,10.10
2019-01-11T03:02:06.022Z,9.50
2019-01-11T03:03:06.015Z,10.80
2019-01-11T03:04:06.029Z,8.80
2019-01-11T03:05:05.988Z,13.00
2019-01-11T03:06:05.978Z,10.80
2019-01-11T03:07:05.960Z,12.80
2019-01-11T03:08:05.946Z,11.80
2019-01-11T03:09:05.936Z,11.90
2019-01-11T03:10:05.929Z,10.60
2019-01-11T03:11:05.917Z,10.00
2019-01-11T03:12:05.896Z,11.60
2019-01-11T03:13:05.890Z,12.00
2019-01-11T03:14:05.874Z,12.60
2019-01-11T03:15:05.860Z,14.20
2019-01-11T03:16:05.850Z,11.50
2019-01-11T03:17:05.835Z,12.50
2019-01-11T03:18:05.825Z,11.30
2019-01-11T03:19:05.799Z,12.00
2019-01-11T03:20:05.791Z,11.50
2019-01-11T03:21:05.784Z,12.50
2019-01-11T03:22:05.774Z,12.40
2019-01-11T03:23:05.760Z,11.90
2019-01-11T03:24:05.746Z,13.20
2019-01-11T03:25:05.737Z,12.60
2019-01-11T03:26:05.720Z,12.90
2019-01-11T03:27:05.705Z,12.50
2019-01-11T03:28:05.695Z,11.20
2019-01-11T03:29:05.681Z,16.00
2019-01-11T03:30:05.666Z,15.60
2019-01-11T03:31:05.674Z,13.70
2019-01-11T03:32:05.648Z,12.50
2019-01-11T03:33:05.637Z,14.60
2019-01-11T03:34:05.617Z,15.10
2019-01-11T03:35:05.609Z,11.80
2019-01-11T03:36:05.598Z,15.30
2019-01-11T03:37:05.584Z,13.90
2019-01-11T03:38:05.577Z,14.80
2019-01-11T03:39:05.552Z,12.10
2019-01-11T03:40:05.542Z,14.20
2019-01-11T03:41:05.530Z,12.50
2019-01-11T03:42:05.519Z,15.40
2019-01-11T03:43:05.512Z,13.30
2019-01-11T03:44:05.501Z,13.70
2019-01-11T03:45:05.474Z,15.30
2019-01-11T03:46:05.465Z,15.10
2019-01-11T03:47:05.457Z,16.00
2019-01-11T03:48:05.443Z,15.50
2019-01-11T03:49:05.427Z,16.60
2019-01-11T03:50:05.410Z,16.10
2019-01-11T03:51:05.402Z,15.80
2019-01-11T03:52:05.393Z,17.00
2019-01-11T03:53:05.382Z,15.20
2019-01-11T03:54:05.380Z,18.20
2019-01-11T03:55:05.351Z,14.00
2019-01-11T03:56:05.340Z,18.10
2019-01-11T03:57:05.327Z,17.00
2019-01-11T03:58:05.310Z,16.10
2019-01-11T03:59:05.302Z,14.60
2019-01-11T04:00:05.293Z,19.90
2019-01-11T04:01:05.278Z,15.40
2019-01-11T04:02:05.263Z,17.30
2019-01-11T04:03:05.249Z,17.20
2019-01-11T04:04:05.239Z,18.40
2019-01-11T04:05:05.224Z,20.60
2019-01-11T04:06:05.211Z,15.00
2019-01-11T04:07:05.203Z,17.60
2019-01-11T04:08:05.187Z,16.80
2019-01-11T04:09:05.173Z,19.80
2019-01-11T04:10:05.161Z,18.40
2019-01-11T04:11:05.146Z,19.00
2019-01-11T04:12:05.141Z,15.70
2019-01-11T04:13:05.123Z,14.80
2019-01-11T04:14:05.109Z,18.60
2019-01-11T04:15:05.097Z,20.10
2019-01-11T04:16:05.087Z,18.00
2019-01-11T04:17:05.071Z,18.60
2019-01-11T04:18:05.063Z,18.30
2019-01-11T04:19:05.050Z,15.60
2019-01-11T04:20:05.047Z,17.40
2019-01-11T04:21:05.028Z,18.90
2019-01-11T04:22:05.006Z,17.10
2019-01-11T04:23:05.000Z,17.70
2019-01-11T04:24:04.985Z,16.60
2019-01-11T04:25:04.973Z,15.30
2019-01-11T04:26:04.960Z,16.00
2019-01-11T04:27:04.959Z,17.60
2019-01-11T04:28:04.933Z,14.70
2019-01-11T04:29:04.918Z,18.30
2019-01-11T04:30:04.909Z,17.30
2019-01-11T04:31:04.895Z,23.00
2019-01-11T04:32:04.884Z,17.80
2019-01-11T04:33:04.872Z,16.00
2019-01-11T04:34:04.859Z,16.60
2019-01-11T04:35:04.893Z,17.40
2019-01-11T04:36:04.833Z,20.40
2019-01-11T04:37:04.824Z,15.80
2019-01-11T04:38:04.807Z,17.90
2019-01-11T04:39:04.795Z,15.80
2019-01-11T04:40:04.786Z,17.00
2019-01-11T04:41:04.772Z,16.40
2019-01-11T04:42:04.759Z,16.30
2019-01-11T04:43:04.746Z,18.10
2019-01-11T04:44:04.728Z,15.70
2019-01-11T04:45:04.726Z,16.90
2019-01-11T04:46:04.706Z,21.80
2019-01-11T04:47:04.692Z,19.70
2019-01-11T04:48:04.685Z,14.90
2019-01-11T04:49:04.683Z,16.80
2019-01-11T04:50:09.297Z,18.30
2019-01-11T04:51:04.645Z,17.80
2019-01-11T04:52:04.636Z,19.10
2019-01-11T04:53:04.624Z,19.10
2019-01-11T04:54:04.610Z,18.30
2019-01-11T04:55:04.591Z,17.50
2019-01-11T04:56:04.581Z,16.60
2019-01-11T04:57:04.565Z,19.70
2019-01-11T04:58:04.548Z,17.30
2019-01-11T04:59:04.543Z,18.00
2019-01-11T05:00:04.540Z,15.70
2019-01-11T05:01:04.517Z,19.20
2019-01-11T05:02:04.503Z,17.40
2019-01-11T05:03:04.494Z,20.90
2019-01-11T05:04:04.484Z,20.10
2019-01-11T05:05:04.469Z,20.40
2019-01-11T05:06:04.455Z,20.50
2019-01-11T05:07:04.441Z,22.70
2019-01-11T05:08:04.430Z,18.60
2019-01-11T05:09:04.422Z,20.20
2019-01-11T05:10:04.405Z,18.80
2019-01-11T05:11:04.394Z,17.80
2019-01-11T05:12:04.381Z,21.10
2019-01-11T05:13:04.371Z,17.60
2019-01-11T05:14:04.352Z,19.10
2019-01-11T05:15:04.349Z,22.00
2019-01-11T05:16:04.338Z,20.20
2019-01-11T05:17:04.321Z,20.60
2019-01-11T05:18:04.312Z,23.00
2019-01-11T05:19:04.293Z,17.40
2019-01-11T05:20:04.278Z,18.60
2019-01-11T05:21:04.277Z,18.20
2019-01-11T05:22:04.254Z,19.80
2019-01-11T05:23:04.239Z,20.40
2019-01-11T05:24:04.230Z,18.30
2019-01-11T05:25:04.218Z,23.00
2019-01-11T05:26:04.204Z,19.40
2019-01-11T05:27:04.302Z,18.70
2019-01-11T05:28:04.174Z,20.90
2019-01-11T05:29:04.166Z,18.80
2019-01-11T05:30:04.151Z,18.00
2019-01-11T05:31:04.141Z,20.30
2019-01-11T05:32:04.173Z,23.50
2019-01-11T05:33:04.121Z,20.50
2019-01-11T05:34:04.099Z,27.20
2019-01-11T05:35:04.092Z,25.40
2019-01-11T05:36:04.079Z,22.90
2019-01-11T05:37:04.071Z,19.20
2019-01-11T05:38:04.053Z,22.20
2019-01-11T05:39:04.041Z,23.40
2019-01-11T05:40:04.028Z,18.50
2019-01-11T05:41:04.015Z,21.00
2019-01-11T05:42:04.000Z,23.50
2019-01-11T05:43:03.992Z,22.70
2019-01-11T05:44:05.288Z,24.10
2019-01-11T05:45:03.965Z,22.20
2019-01-11T05:46:03.956Z,23.70
2019-01-11T05:47:03.932Z,21.00
2019-01-11T05:48:03.925Z,24.20
2019-01-11T05:49:03.916Z,23.30
2019-01-11T05:50:03.908Z,21.60
2019-01-11T05:51:03.893Z,21.90
2019-01-11T05:52:03.877Z,20.40
2019-01-11T05:53:03.869Z,22.00
2019-01-11T05:54:03.853Z,23.60
2019-01-11T05:55:03.840Z,23.90
2019-01-11T05:56:03.830Z,23.60
2019-01-11T05:57:03.817Z,19.40
2019-01-11T05:58:03.813Z,19.80
2019-01-11T05:59:03.788Z,22.10
2019-01-11T06:00:03.778Z,21.70
2019-01-11T06:01:03.762Z,21.40
2019-01-11T06:02:03.749Z,23.40
2019-01-11T06:03:03.736Z,22.10
2019-01-11T06:04:03.727Z,22.30
2019-01-11T06:05:03.720Z,21.90
2019-01-11T06:06:03.702Z,23.80
2019-01-11T06:07:03.690Z,22.50
2019-01-11T06:08:03.677Z,22.00
2019-01-11T06:09:03.662Z,24.80
2019-01-11T06:10:03.657Z,24.30
2019-01-11T06:11:03.642Z,21.70
2019-01-11T06:12:03.625Z,22.50
2019-01-11T06:13:03.613Z,25.40
2019-01-11T06:14:03.597Z,23.60
2019-01-11T06:15:03.589Z,22.90
2019-01-11T06:16:03.577Z,24.10
2019-01-11T06:17:03.568Z,22.90
2019-01-11T06:18:03.552Z,21.30
2019-01-11T06:19:03.536Z,22.30
2019-01-11T06:20:03.519Z,24.00
2019-01-11T06:21:03.511Z,26.40
2019-01-11T06:22:03.503Z,20.40
2019-01-11T06:23:03.487Z,23.70
2019-01-11T06:24:03.479Z,19.70
2019-01-11T06:25:03.460Z,23.20
2019-01-11T06:26:03.447Z,23.20
2019-01-11T06:27:03.433Z,26.50
2019-01-11T06:28:03.424Z,23.60
2019-01-11T06:29:03.409Z,21.80
2019-01-11T06:30:03.403Z,21.40
2019-01-11T06:31:03.387Z,21.50
2019-01-11T06:32:03.374Z,22.00
2019-01-11T06:33:03.358Z,22.20
2019-01-11T06:34:03.352Z,24.90
2019-01-11T06:35:03.336Z,23.80
2019-01-11T06:36:03.325Z,19.30
2019-01-11T06:37:03.310Z,19.10
2019-01-11T06:38:03.296Z,23.30
2019-01-11T06:39:03.283Z,22.90
2019-01-11T06:40:03.272Z,24.60
2019-01-11T06:41:03.255Z,20.60
2019-01-11T06:42:03.246Z,22.00
2019-01-11T06:43:03.575Z,24.30
2019-01-11T06:44:03.218Z,22.60
2019-01-11T06:45:03.209Z,22.20
2019-01-11T06:46:03.193Z,27.10
2019-01-11T06:47:03.182Z,20.40
2019-01-11T06:48:03.173Z,23.50
2019-01-11T06:49:03.160Z,22.90
2019-01-11T06:50:03.150Z,25.10
2019-01-11T06:51:03.133Z,22.80
2019-01-11T06:52:03.125Z,24.00
2019-01-11T06:53:03.152Z,24.90
2019-01-11T06:54:03.097Z,24.30
2019-01-11T06:55:03.082Z,39.50
2019-01-11T06:56:03.071Z,22.30
2019-01-11T06:57:03.055Z,22.90
2019-01-11T06:58:03.047Z,21.90
2019-01-11T06:59:03.035Z,24.00
2019-01-11T07:00:03.021Z,28.00
2019-01-11T07:01:03.006Z,22.70
2019-01-11T07:02:02.995Z,23.50
2019-01-11T07:03:02.981Z,23.40
2019-01-11T07:04:02.986Z,24.00
2019-01-11T07:05:02.955Z,27.80
2019-01-11T07:06:02.938Z,24.70
2019-01-11T07:07:02.928Z,23.40
2019-01-11T07:08:02.919Z,23.80
2019-01-11T07:09:02.905Z,23.70
2019-01-11T07:10:02.896Z,26.50
2019-01-11T07:11:02.986Z,27.20
2019-01-11T07:12:02.883Z,26.20
2019-01-11T07:13:02.854Z,26.40
2019-01-11T07:14:02.841Z,20.80
2019-01-11T07:15:02.830Z,23.70
2019-01-11T07:16:02.820Z,21.10
2019-01-11T07:17:02.803Z,25.20
2019-01-11T07:18:02.790Z,21.90
2019-01-11T07:19:02.780Z,21.70
2019-01-11T07:20:05.692Z,21.40
2019-01-11T07:21:02.756Z,24.40
2019-01-11T07:22:02.739Z,24.20
2019-01-11T07:23:02.726Z,22.00
2019-01-11T07:24:02.710Z,21.20
2019-01-11T07:25:02.706Z,20.60
2019-01-11T07:26:02.686Z,22.60
2019-01-11T07:27:02.681Z,22.70
2019-01-11T07:28:02.659Z,22.50
2019-01-11T07:29:02.652Z,19.50
2019-01-11T07:30:02.639Z,19.70
2019-01-11T07:31:02.634Z,19.90
2019-01-11T07:32:02.619Z,18.80
2019-01-11T07:33:02.598Z,21.30
2019-01-11T07:34:02.583Z,20.10
2019-01-11T07:35:02.574Z,21.20
2019-01-11T07:36:02.564Z,23.80
2019-01-11T07:37:02.551Z,24.30
2019-01-11T07:38:02.536Z,23.80
2019-01-11T07:39:02.519Z,20.50
2019-01-11T07:40:02.543Z,24.20
2019-01-11T07:41:02.499Z,23.20
2019-01-11T07:42:02.488Z,22.10
2019-01-11T07:43:02.470Z,20.70
2019-01-11T07:44:02.468Z,23.60
2019-01-11T07:45:02.451Z,20.80
2019-01-11T07:46:02.430Z,20.50
2019-01-11T07:47:02.419Z,20.70
2019-01-11T07:48:02.409Z,21.60
2019-01-11T07:49:02.409Z,23.50
2019-01-11T07:50:02.380Z,23.30
2019-01-11T07:51:02.379Z,22.20
2019-01-11T07:52:02.365Z,20.40
2019-01-11T07:53:02.343Z,21.00
2019-01-11T07:54:02.334Z,21.10
2019-01-11T07:55:02.327Z,22.50
2019-01-11T07:56:02.310Z,28.20
2019-01-11T07:57:02.297Z,20.30
2019-01-11T07:58:02.281Z,22.20
2019-01-11T07:59:02.270Z,22.20
2019-01-11T08:00:02.259Z,23.20
2019-01-11T08:01:02.261Z,22.70
2019-01-11T08:02:02.227Z,21.20
2019-01-11T08:03:02.219Z,21.60
2019-01-11T08:04:02.206Z,25.60
2019-01-11T08:05:02.195Z,21.80
2019-01-11T08:06:02.178Z,26.40
2019-01-11T08:07:02.167Z,21.10
2019-01-11T08:08:02.157Z,23.00
2019-01-11T08:09:02.146Z,21.00
2019-01-11T08:10:02.131Z,22.70
2019-01-11T08:11:02.118Z,24.10
2019-01-11T08:12:02.102Z,22.80
2019-01-11T08:13:02.087Z,17.70
2019-01-11T08:14:02.091Z,20.00
2019-01-11T08:15:02.070Z,21.80
2019-01-11T08:16:02.059Z,20.40
2019-01-11T08:17:02.047Z,23.20
2019-01-11T08:18:02.030Z,18.50
2019-01-11T08:19:02.015Z,21.10
2019-01-11T08:20:02.006Z,20.40
2019-01-11T08:21:02.010Z,22.90
2019-01-11T08:22:01.981Z,24.20
2019-01-11T08:23:01.967Z,19.70
2019-01-11T08:24:01.956Z,21.60
2019-01-11T08:25:01.940Z,19.10
2019-01-11T08:26:01.959Z,20.70
2019-01-11T08:27:01.933Z,21.30
2019-01-11T08:28:01.908Z,20.30
2019-01-11T08:29:01.892Z,20.50
2019-01-11T08:30:01.888Z,20.10
2019-01-11T08:31:01.866Z,19.90
2019-01-11T08:32:01.868Z,20.00
2019-01-11T08:33:01.840Z,19.50
2019-01-11T08:34:01.828Z,24.60
2019-01-11T08:35:01.816Z,20.80
2019-01-11T08:36:01.805Z,17.80
2019-01-11T08:37:01.790Z,19.90
2019-01-11T08:38:01.773Z,19.50
2019-01-11T08:39:01.767Z,20.70
2019-01-11T08:40:01.756Z,19.90
2019-01-11T08:41:01.762Z,20.10
2019-01-11T08:42:01.729Z,18.60
2019-01-11T08:43:01.713Z,20.50
2019-01-11T08:44:01.702Z,22.60
2019-01-11T08:45:01.687Z,19.70
2019-01-11T08:46:01.684Z,21.20
2019-01-11T08:47:01.667Z,19.70
2019-01-11T08:48:01.654Z,19.90
2019-01-11T08:49:01.639Z,20.20
2019-01-11T08:50:01.622Z,20.40
2019-01-11T08:51:02.743Z,19.20
2019-01-11T08:52:01.600Z,18.00
2019-01-11T08:53:01.590Z,18.50
2019-01-11T08:54:01.577Z,20.10
2019-01-11T08:55:01.565Z,17.30
2019-01-11T08:56:08.076Z,19.00
2019-01-11T08:57:01.542Z,19.20
2019-01-11T08:58:01.530Z,19.00
2019-01-11T08:59:01.513Z,23.00
2019-01-11T09:00:01.507Z,19.00
2019-01-11T09:01:01.488Z,20.50
2019-01-11T09:02:01.475Z,21.50
2019-01-11T09:03:01.463Z,17.20
2019-01-11T09:04:01.452Z,17.00
2019-01-11T09:05:01.438Z,23.20
2019-01-11T09:06:01.427Z,18.60
2019-01-11T09:07:01.414Z,18.30
2019-01-11T09:08:01.398Z,17.00
2019-01-11T09:09:01.394Z,17.50
2019-01-11T09:10:01.372Z,19.80
2019-01-11T09:11:01.363Z,19.00
2019-01-11T09:12:01.346Z,17.40
2019-01-11T09:13:01.336Z,21.10
2019-01-11T09:14:01.327Z,16.20
2019-01-11T09:15:01.310Z,18.20
2019-01-11T09:16:01.306Z,18.80
2019-01-11T09:17:01.289Z,22.20
2019-01-11T09:18:01.276Z,17.50
2019-01-11T09:19:01.293Z,21.20
2019-01-11T09:20:01.253Z,16.80
2019-01-11T09:21:01.238Z,18.80
2019-01-11T09:22:01.223Z,20.50
2019-01-11T09:23:01.209Z,20.40
2019-01-11T09:24:01.199Z,17.50
2019-01-11T09:25:01.186Z,18.40
2019-01-11T09:26:01.174Z,18.60
2019-01-11T09:27:01.191Z,19.30
2019-01-11T09:28:01.151Z,22.30
2019-01-11T09:29:01.137Z,19.70
2019-01-11T09:30:01.125Z,19.90
2019-01-11T09:31:01.108Z,21.30
2019-01-11T09:32:01.099Z,18.10
2019-01-11T09:33:01.088Z,18.70
2019-01-11T09:34:01.102Z,22.30
2019-01-11T09:35:01.070Z,19.60
2019-01-11T09:36:01.051Z,18.70
2019-01-11T09:37:01.036Z,17.90
2019-01-11T09:38:01.021Z,22.00
2019-01-11T09:39:01.019Z,16.80
2019-01-11T09:40:00.995Z,16.20
2019-01-11T09:41:00.987Z,21.70
2019-01-11T09:42:00.978Z,21.30
2019-01-11T09:43:00.963Z,19.30
2019-01-11T09:44:00.957Z,18.90
2019-01-11T09:45:00.951Z,17.50
2019-01-11T09:46:00.923Z,20.30
2019-01-11T09:47:00.913Z,19.50
2019-01-11T09:48:00.896Z,16.40
2019-01-11T09:49:00.883Z,16.70
2019-01-11T09:50:00.877Z,21.30
2019-01-11T09:51:00.858Z,15.30
2019-01-11T09:52:00.849Z,18.20
2019-01-11T09:53:00.836Z,18.00
2019-01-11T09:54:00.826Z,17.40
2019-01-11T09:55:00.811Z,19.50
2019-01-11T09:56:00.799Z,20.10
2019-01-11T09:57:00.795Z,23.20
2019-01-11T09:58:00.766Z,18.20
2019-01-11T09:59:00.756Z,18.80
2019-01-11T10:00:00.750Z,22.20
2019-01-11T10:01:00.739Z,23.70
2019-01-11T10:02:00.723Z,24.40
2019-01-11T10:03:00.720Z,21.40
2019-01-11T10:04:00.701Z,24.30
2019-01-11T10:05:00.688Z,20.00
2019-01-11T10:06:00.679Z,22.30
2019-01-11T10:07:00.664Z,21.30
2019-01-11T10:08:00.646Z,19.90
2019-01-11T10:09:00.670Z,22.30
2019-01-11T10:10:00.623Z,22.20
2019-01-11T10:11:00.614Z,23.30
2019-01-11T10:12:00.599Z,17.90
2019-01-11T10:13:00.587Z,19.40
2019-01-11T10:14:00.578Z,17.90
2019-01-11T10:15:00.571Z,21.40
2019-01-11T10:16:00.550Z,18.90
2019-01-11T10:17:00.539Z,20.10
2019-01-11T10:18:00.514Z,20.20
2019-01-11T10:19:00.512Z,19.80
2019-01-11T10:20:00.500Z,20.40
2019-01-11T10:21:00.493Z,19.80
2019-01-11T10:22:00.479Z,21.60
2019-01-11T10:23:00.468Z,24.60
2019-01-11T10:24:00.449Z,22.70
2019-01-11T10:25:00.434Z,20.90
2019-01-11T10:26:00.425Z,22.00
2019-01-11T10:27:00.417Z,18.90
2019-01-11T10:28:00.407Z,21.20
2019-01-11T10:29:00.386Z,20.80
2019-01-11T10:30:00.370Z,20.20
2019-01-11T10:31:00.746Z,21.20
2019-01-11T10:32:00.350Z,21.40
2019-01-11T10:33:00.338Z,20.20
2019-01-11T10:34:00.323Z,16.90
2019-01-11T10:35:00.314Z,22.00
2019-01-11T10:36:00.301Z,22.60
2019-01-11T10:37:00.291Z,19.20
2019-01-11T10:38:00.272Z,19.90
2019-01-11T10:39:00.261Z,17.80
2019-01-11T10:40:00.250Z,21.50
2019-01-11T10:41:00.238Z,20.90
2019-01-11T10:42:00.224Z,20.50
2019-01-11T10:43:00.214Z,23.30
2019-01-11T10:44:00.200Z,21.70
2019-01-11T10:45:00.253Z,19.60
2019-01-11T10:46:00.177Z,18.30
2019-01-11T10:47:00.159Z,20.10
2019-01-11T10:48:00.147Z,22.90
2019-01-11T10:49:00.138Z,18.10
2019-01-11T10:50:00.166Z,21.10
2019-01-11T10:51:00.112Z,21.80
2019-01-11T10:52:00.101Z,21.00
2019-01-11T10:53:00.090Z,20.60
2019-01-11T10:54:00.074Z,22.90
2019-01-11T10:55:00.081Z,17.60
2019-01-11T10:56:00.051Z,21.20
2019-01-11T10:57:00.039Z,23.20
2019-01-11T10:58:00.022Z,18.00
2019-01-11T10:59:00.013Z,20.20
2019-01-11T11:00:00.005Z,20.50
2019-01-11T11:00:59.986Z,20.80
2019-01-11T11:01:59.975Z,21.20
2019-01-11T11:02:59.963Z,19.20
2019-01-11T11:03:59.986Z,18.70
2019-01-11T11:04:59.938Z,18.00
2019-01-11T11:05:59.931Z,19.20
2019-01-11T11:06:59.913Z,17.60
2019-01-11T11:07:59.898Z,19.00
2019-01-11T11:08:59.891Z,18.90
2019-01-11T11:09:59.882Z,17.30
2019-01-11T11:10:59.866Z,20.10
2019-01-11T11:11:59.856Z,23.30
2019-01-11T11:12:59.839Z,21.30
2019-01-11T11:13:59.830Z,18.00
2019-01-11T11:14:59.815Z,20.40
2019-01-11T11:15:59.807Z,19.20
2019-01-11T11:16:59.788Z,20.50
2019-01-11T11:17:59.776Z,21.40
2019-01-11T11:18:59.763Z,18.50
2019-01-11T11:19:59.757Z,18.10
2019-01-11T11:20:59.743Z,18.10
2019-01-11T11:21:59.735Z,17.10
2019-01-11T11:22:59.715Z,18.80
2019-01-11T11:23:59.702Z,20.80
2019-01-11T11:24:59.698Z,22.70
2019-01-11T11:25:59.681Z,19.30
2019-01-11T11:26:59.672Z,21.30
2019-01-11T11:27:59.650Z,21.50
2019-01-11T11:28:59.647Z,17.90
2019-01-11T11:29:59.627Z,19.20
2019-01-11T11:30:59.628Z,20.80
2019-01-11T11:31:59.609Z,17.50
2019-01-11T11:32:59.588Z,21.10
2019-01-11T11:33:59.578Z,20.00
2019-01-11T11:34:59.605Z,18.80
2019-01-11T11:35:59.555Z,16.60
2019-01-11T11:36:59.541Z,19.80
2019-01-11T11:37:59.535Z,19.70
2019-01-11T11:38:59.520Z,20.30
2019-01-11T11:39:59.508Z,18.20
2019-01-11T11:40:59.495Z,19.90
2019-01-11T11:41:59.482Z,19.40
2019-01-11T11:42:59.473Z,20.80
2019-01-11T11:43:59.460Z,16.00
2019-01-11T11:44:59.445Z,21.10
2019-01-11T11:45:59.434Z,18.10
2019-01-11T11:46:59.422Z,19.80
2019-01-11T11:47:59.414Z,22.40
2019-01-11T11:48:59.400Z,20.90
2019-01-11T11:49:59.380Z,17.60
2019-01-11T11:50:59.374Z,20.20
2019-01-11T11:51:59.359Z,19.40
2019-01-11T11:52:59.349Z,20.70
2019-01-11T11:53:59.366Z,16.70
2019-01-11T11:54:59.324Z,21.00
2019-01-11T11:55:59.314Z,20.50
2019-01-11T11:56:59.295Z,21.60
2019-01-11T11:57:59.287Z,18.70
2019-01-11T11:58:59.275Z,21.10
2019-01-11T11:59:59.263Z,17.40
2019-01-11T12:00:59.252Z,19.80
2019-01-11T12:01:59.237Z,21.10
2019-01-11T12:02:59.234Z,18.00
2019-01-11T12:03:59.211Z,19.50
2019-01-11T12:04:59.201Z,20.10
2019-01-11T12:05:59.190Z,21.00
2019-01-11T12:06:59.186Z,18.60
2019-01-11T12:07:59.172Z,18.60
2019-01-11T12:08:59.154Z,17.50
2019-01-11T12:09:59.141Z,17.60
2019-01-11T12:10:59.128Z,18.50
2019-01-11T12:11:59.117Z,19.00
2019-01-11T12:12:59.107Z,18.20
2019-01-11T12:13:59.097Z,19.20
2019-01-11T12:14:59.086Z,21.20
2019-01-11T12:15:59.065Z,21.30
2019-01-11T12:16:59.051Z,20.30
2019-01-11T12:17:59.040Z,19.80
2019-01-11T12:18:59.032Z,19.40
2019-01-11T12:19:59.018Z,20.30
2019-01-11T12:20:59.008Z,20.50
2019-01-11T12:22:01.746Z,18.80
2019-01-11T12:22:58.984Z,18.30
2019-01-11T12:23:58.979Z,21.90
2019-01-11T12:24:58.959Z,23.10
2019-01-11T12:25:58.951Z,19.40
2019-01-11T12:26:59.642Z,20.50
2019-01-11T12:27:58.923Z,21.50
2019-01-11T12:28:58.912Z,20.10
2019-01-11T12:29:58.893Z,19.50
2019-01-11T12:30:58.886Z,22.40
2019-01-11T12:31:58.875Z,23.50
2019-01-11T12:32:58.864Z,19.30
2019-01-11T12:33:58.849Z,22.40
2019-01-11T12:34:58.839Z,21.10
2019-01-11T12:35:58.825Z,22.80
2019-01-11T12:36:58.810Z,18.80
2019-01-11T12:37:58.806Z,23.90
2019-01-11T12:38:58.789Z,22.80
2019-01-11T12:39:58.773Z,18.30
2019-01-11T12:40:58.766Z,23.90
2019-01-11T12:41:58.753Z,23.70
2019-01-11T12:42:58.738Z,21.60
2019-01-11T12:43:58.728Z,23.20
2019-01-11T12:44:58.729Z,21.90
2019-01-11T12:45:58.705Z,20.90
2019-01-11T12:46:58.692Z,23.20
2019-01-11T12:47:58.689Z,22.50
2019-01-11T12:48:58.669Z,24.20
2019-01-11T12:49:58.652Z,19.10
2019-01-11T12:50:58.638Z,23.30
2019-01-11T12:51:58.631Z,22.30
2019-01-11T12:52:58.620Z,20.20
2019-01-11T12:53:58.606Z,18.10
2019-01-11T12:54:58.588Z,20.90